Portada
METAR-TAF:

METAR-TAF

Aeroports :

Khajuraho, Índia

latitud: 24-49-02N, longitud: 79-55-07E, altitud: 222 m

Observació

L'informe es va fer fa 6 hores i 29 minuts, a les 12:00 UTC
Vent 4 kt del Nord-Oest
Temperatura 25°C
Humitat 36%
Pressió 1010 hPa
Visibilitat: 3000 m
calitja

METAR: VEKO 271200Z 32004KT 3000 HZ NSC 25/09 Q1010

Hora: 23:59 (18:29 UTC)

Pronòstic

L'informe es va fer fa 1 hora i 29 minuts, a les 17:00 UTC
Pronòstic vàlid del 27 a les 18 UTC al 28 a les 03 UTC
Vent 4 kt del Nord/Nord-Est
Visibilitat: 2000 m
calitja
Evolucionant progressivament
l' 28 a les 00 UTC al 28 a les 02 UTC
Visibilitat: 1500 m
boirina

TAF: VEKO 271700Z 2718/2803 03004KT 2000 HZ NSC BECMG 2800/2802 1500 BR

Observacions i pronòstics meteorològics de més de 4000 aeroports (METAR i TAF).

Les estacions disponibles són els punts grocs i vermells al mapa.

Posi el ratolí al punt desitjat per veure el nom de l'estació.

Feu clic per veure les observacions i els pronòstics meteorològics.

Per canviar el mapa: feu clic els botons verds amb una creu de color negre per apropar; al botó verd amb un guió per allunyar la imatge; o en les fletxes verdes per a mapes adjacents.


METAR-TAF: